Aérodrome :
LOGIN :

S'inscrire | Disclaimer

   EN    FR    IT 

 










Légende :    VFR   VFR Marginal   IFR   IFR Intensif   IFR Très Intensif
Visi : 
Plafond : 
>= 8 km
>= 3000ft
5 à 8 km
1000 à 3000 ft
1500m à 5 km
500 à 1000 ft
800 à 1500m
200 à 500 ft
< 800m
< 200 ft
Symboles :   Orages  Brouillard  Fortes neiges  Fortes précipitations  Vent > 20 kt
SIGMETs :   Divers  Orages  Givrage  Turbulence  Onde Orograph.  Cendres Volcan.






- Altitude de l'aérodrome : -11 ft
- Code IATA : AMS


EHAM - Amsterdam Schiphol

DERNIER METAR :
  • 280825Z 34005KT 320V020 8000 -SHRA FEW016 SCT020CB BKN040 03/02 Q0998 TEMPO 6000

METARs EXPIRÉS :
  • 280755Z 33005KT 9000 -SHRA FEW018 SCT020CB BKN040 02/01 Q0997 TEMPO 6000
  • 280725Z 31005KT 6000 -SHRA MIFG FEW020CB SCT042 01/00 Q0997 TEMPO 9999 NSW
  • 280655Z 31003KT 4200 BR MIFG FEW023 01/01 Q0997 BECMG 9999 NSW TEMPO 6000 -SHRA SCT020CB
  • 280625Z 30003KT 1200 R18C/0700D R27/0800U R18R/0600D R06/P2000N FZFG FEW027 M01/M01 Q0996 TEMPO 0500
  • 280555Z 31003KT 2500 BCFG FEW040 M00/M01 Q0996 TEMPO 0800

TAF COR TAF EHAM
Valide du 28 à 06h jusqu'au 29 à 12h UTC


280519Z 2806/2912 34007KT 9999 SCT025
PROB30
TEMPO 2806/2808 1200 BCFG
TEMPO 2807/2812 34012KT 4500 SHRAGS RA SCT007 BKN012 SCT020CB
PROB30
TEMPO 2821/2824 6000 SHRAGS SCT025CB
PROB30
TEMPO 2905/2912 01014KT 6000 SHRAGS SCT025CB



MET'MAP, la Météo Aéronautique d'un coup d'oeil ! - Copyright ORBIFLY Décembre 2007 - Disclaimer

ORBIFLY MET'MAP TEAM :

Programmation & Développement : Alexandra Zaïnal
Sur une idée originale de : Baudouin d'Aumeries
Assistance à la programmation : Marc-Olivier Méhu
Soutien technique & logistique : Manuel Goepfert

Contact : metmap@orbifly.com




SOURCES & CREDITS :

   NOAA